LICC/CTA METAR and TAF weather

Enter ICAO airport designator
Station Type Date Time Source
LICC METAR 2020/07/13 15:20 UTC NOAA

LICC 131520Z 08013KT CAVOK 27/22 Q1012


Station Type Date Time Source
LICC Decoded METAR 2020/07/13 15:20 UTC NOAA

Catania / Fontanarossa, Italy (LICC) 37-28N 015-03E 17M
Jul 13, 2020 - 11:20 AM EDT / 2020.07.13 1520 UTC
Wind: from the E (080 degrees) at 15 MPH (13 KT):0
Visibility: greater than 7 mile(s):0
Temperature: 80 F (27 C)
Dew Point: 71 F (22 C)
Relative Humidity: 74%
Pressure (altimeter): 29.88 in. Hg (1012 hPa)
ob: LICC 131520Z 08013KT CAVOK 27/22 Q1012
cycle: 15

Station Type Date Time Source
LICC TAF 2020/07/13 12:21 UTC NOAA

TAF LICC 131100Z 1312/1412 09012KT CAVOK
BECMG 1318/1320 VRB05KT
BECMG 1408/1410 09010KT

Example: see airport list